sensor_id;sensor_type;location;lat;lon;timestamp;P1;durP1;ratioP1;P2;durP2;ratioP2
61460;SDS011;47325;50.506;4.472;2022-11-15T00:00:40;9.60;;;7.10;;
61460;SDS011;47325;50.506;4.472;2022-11-15T00:06:25;10.30;;;7.00;;
61460;SDS011;47325;50.506;4.472;2022-11-15T00:12:08;11.60;;;7.00;;
61460;SDS011;47325;50.506;4.472;2022-11-15T00:17:52;12.10;;;7.40;;
61460;SDS011;47325;50.506;4.472;2022-11-15T00:23:35;9.70;;;6.60;;
61460;SDS011;47325;50.506;4.472;2022-11-15T00:29:18;9.80;;;6.90;;
61460;SDS011;47325;50.506;4.472;2022-11-15T00:35:01;11.80;;;7.20;;
61460;SDS011;47325;50.506;4.472;2022-11-15T00:40:44;12.60;;;7.10;;
61460;SDS011;47325;50.506;4.472;2022-11-15T00:46:27;9.70;;;7.10;;
61460;SDS011;47325;50.506;4.472;2022-11-15T00:52:12;10.80;;;7.30;;
61460;SDS011;47325;50.506;4.472;2022-11-15T00:57:55;11.20;;;6.90;;
61460;SDS011;47325;50.506;4.472;2022-11-15T01:03:38;11.80;;;7.10;;
61460;SDS011;47325;50.506;4.472;2022-11-15T01:09:22;10.90;;;7.00;;
61460;SDS011;47325;50.506;4.472;2022-11-15T01:15:05;9.70;;;6.60;;
61460;SDS011;47325;50.506;4.472;2022-11-15T01:20:49;11.90;;;6.70;;
61460;SDS011;47325;50.506;4.472;2022-11-15T01:26:32;10.60;;;7.00;;
61460;SDS011;47325;50.506;4.472;2022-11-15T01:32:15;9.10;;;6.70;;
61460;SDS011;47325;50.506;4.472;2022-11-15T01:37:58;10.60;;;7.20;;
61460;SDS011;47325;50.506;4.472;2022-11-15T01:43:41;11.10;;;6.80;;
61460;SDS011;47325;50.506;4.472;2022-11-15T01:49:24;9.70;;;6.70;;
61460;SDS011;47325;50.506;4.472;2022-11-15T01:55:11;10.90;;;6.90;;
61460;SDS011;47325;50.506;4.472;2022-11-15T02:00:57;9.90;;;6.80;;
61460;SDS011;47325;50.506;4.472;2022-11-15T02:06:40;10.60;;;7.20;;
61460;SDS011;47325;50.506;4.472;2022-11-15T02:12:24;11.00;;;7.30;;
61460;SDS011;47325;50.506;4.472;2022-11-15T02:18:10;10.70;;;7.00;;
61460;SDS011;47325;50.506;4.472;2022-11-15T02:35:52;11.20;;;7.10;;
61460;SDS011;47325;50.506;4.472;2022-11-15T02:41:39;11.80;;;7.00;;
61460;SDS011;47325;50.506;4.472;2022-11-15T02:47:24;9.30;;;6.90;;
61460;SDS011;47325;50.506;4.472;2022-11-15T02:53:10;11.00;;;7.30;;
61460;SDS011;47325;50.506;4.472;2022-11-15T02:58:59;11.30;;;7.20;;
61460;SDS011;47325;50.506;4.472;2022-11-15T03:04:48;10.70;;;7.40;;
61460;SDS011;47325;50.506;4.472;2022-11-15T03:10:36;9.90;;;6.80;;
61460;SDS011;47325;50.506;4.472;2022-11-15T03:16:24;8.90;;;6.60;;
61460;SDS011;47325;50.506;4.472;2022-11-15T03:22:09;10.10;;;6.80;;
61460;SDS011;47325;50.506;4.472;2022-11-15T03:27:54;9.70;;;6.40;;
61460;SDS011;47325;50.506;4.472;2022-11-15T03:33:38;9.30;;;6.60;;
61460;SDS011;47325;50.506;4.472;2022-11-15T03:39:23;8.90;;;6.10;;
61460;SDS011;47325;50.506;4.472;2022-11-15T03:45:08;7.70;;;5.70;;
61460;SDS011;47325;50.506;4.472;2022-11-15T03:50:53;8.50;;;5.80;;
61460;SDS011;47325;50.506;4.472;2022-11-15T03:56:37;9.90;;;5.30;;
61460;SDS011;47325;50.506;4.472;2022-11-15T04:02:21;7.30;;;5.20;;
61460;SDS011;47325;50.506;4.472;2022-11-15T04:08:03;8.10;;;5.10;;
61460;SDS011;47325;50.506;4.472;2022-11-15T04:13:48;7.10;;;4.80;;
61460;SDS011;47325;50.506;4.472;2022-11-15T04:19:31;7.30;;;4.90;;
61460;SDS011;47325;50.506;4.472;2022-11-15T04:25:14;6.10;;;4.80;;
61460;SDS011;47325;50.506;4.472;2022-11-15T04:31:12;6.50;;;4.90;;
61460;SDS011;47325;50.506;4.472;2022-11-15T04:36:54;6.10;;;4.60;;
61460;SDS011;47325;50.506;4.472;2022-11-15T04:42:37;5.80;;;4.60;;
61460;SDS011;47325;50.506;4.472;2022-11-15T04:48:22;7.50;;;4.40;;
61460;SDS011;47325;50.506;4.472;2022-11-15T04:54:05;6.70;;;4.40;;
61460;SDS011;47325;50.506;4.472;2022-11-15T04:59:48;6.60;;;4.20;;
61460;SDS011;47325;50.506;4.472;2022-11-15T05:05:31;6.90;;;4.20;;
61460;SDS011;47325;50.506;4.472;2022-11-15T05:11:15;5.60;;;4.00;;
61460;SDS011;47325;50.506;4.472;2022-11-15T05:16:58;6.40;;;3.90;;
61460;SDS011;47325;50.506;4.472;2022-11-15T05:22:41;6.80;;;3.90;;
61460;SDS011;47325;50.506;4.472;2022-11-15T05:28:24;5.10;;;3.80;;
61460;SDS011;47325;50.506;4.472;2022-11-15T05:34:07;6.50;;;4.10;;
61460;SDS011;47325;50.506;4.472;2022-11-15T05:39:50;5.70;;;3.80;;
61460;SDS011;47325;50.506;4.472;2022-11-15T05:45:33;5.90;;;3.50;;
61460;SDS011;47325;50.506;4.472;2022-11-15T05:51:17;7.00;;;3.80;;
61460;SDS011;47325;50.506;4.472;2022-11-15T05:57:01;5.50;;;3.80;;
61460;SDS011;47325;50.506;4.472;2022-11-15T06:02:45;4.50;;;3.20;;
61460;SDS011;47325;50.506;4.472;2022-11-15T06:08:29;5.90;;;3.30;;
61460;SDS011;47325;50.506;4.472;2022-11-15T06:14:13;4.20;;;3.30;;
61460;SDS011;47325;50.506;4.472;2022-11-15T06:19:56;5.90;;;3.10;;
61460;SDS011;47325;50.506;4.472;2022-11-15T06:25:39;4.20;;;3.00;;
61460;SDS011;47325;50.506;4.472;2022-11-15T06:31:21;4.70;;;3.20;;
61460;SDS011;47325;50.506;4.472;2022-11-15T06:37:04;5.20;;;3.10;;
61460;SDS011;47325;50.506;4.472;2022-11-15T06:42:47;4.60;;;2.80;;
61460;SDS011;47325;50.506;4.472;2022-11-15T06:48:30;4.70;;;2.60;;
61460;SDS011;47325;50.506;4.472;2022-11-15T06:54:14;3.50;;;2.40;;
61460;SDS011;47325;50.506;4.472;2022-11-15T06:59:57;5.70;;;3.10;;
61460;SDS011;47325;50.506;4.472;2022-11-15T07:05:40;4.50;;;2.50;;
61460;SDS011;47325;50.506;4.472;2022-11-15T07:11:23;4.10;;;2.50;;
61460;SDS011;47325;50.506;4.472;2022-11-15T07:17:06;4.40;;;2.80;;
61460;SDS011;47325;50.506;4.472;2022-11-15T07:22:49;4.10;;;2.60;;
61460;SDS011;47325;50.506;4.472;2022-11-15T07:28:32;4.00;;;2.60;;
61460;SDS011;47325;50.506;4.472;2022-11-15T07:34:16;4.70;;;2.50;;
61460;SDS011;47325;50.506;4.472;2022-11-15T07:39:59;4.50;;;2.80;;
61460;SDS011;47325;50.506;4.472;2022-11-15T07:45:44;4.50;;;2.80;;
61460;SDS011;47325;50.506;4.472;2022-11-15T07:51:27;5.00;;;2.60;;
61460;SDS011;47325;50.506;4.472;2022-11-15T07:57:11;4.20;;;2.50;;
61460;SDS011;47325;50.506;4.472;2022-11-15T08:02:54;5.30;;;2.60;;
61460;SDS011;47325;50.506;4.472;2022-11-15T08:08:42;4.10;;;2.50;;
61460;SDS011;47325;50.506;4.472;2022-11-15T08:14:27;4.40;;;2.80;;
61460;SDS011;47325;50.506;4.472;2022-11-15T08:20:11;3.70;;;2.30;;
61460;SDS011;47325;50.506;4.472;2022-11-15T08:25:58;4.80;;;2.50;;
61460;SDS011;47325;50.506;4.472;2022-11-15T08:31:41;5.40;;;2.30;;
61460;SDS011;47325;50.506;4.472;2022-11-15T08:37:24;4.70;;;2.10;;
61460;SDS011;47325;50.506;4.472;2022-11-15T08:43:07;3.90;;;2.00;;
61460;SDS011;47325;50.506;4.472;2022-11-15T08:48:50;3.80;;;2.20;;
61460;SDS011;47325;50.506;4.472;2022-11-15T08:54:33;4.10;;;1.90;;
61460;SDS011;47325;50.506;4.472;2022-11-15T09:00:16;3.70;;;2.00;;
61460;SDS011;47325;50.506;4.472;2022-11-15T09:06:00;3.00;;;1.90;;
61460;SDS011;47325;50.506;4.472;2022-11-15T09:11:45;3.90;;;1.90;;
61460;SDS011;47325;50.506;4.472;2022-11-15T09:17:29;3.70;;;2.00;;
61460;SDS011;47325;50.506;4.472;2022-11-15T09:23:12;4.00;;;1.90;;
61460;SDS011;47325;50.506;4.472;2022-11-15T09:28:55;3.80;;;1.60;;
61460;SDS011;47325;50.506;4.472;2022-11-15T09:34:38;4.00;;;1.40;;
61460;SDS011;47325;50.506;4.472;2022-11-15T09:40:21;3.60;;;1.70;;
61460;SDS011;47325;50.506;4.472;2022-11-15T09:46:08;3.30;;;1.50;;
61460;SDS011;47325;50.506;4.472;2022-11-15T09:51:56;3.80;;;1.40;;
61460;SDS011;47325;50.506;4.472;2022-11-15T09:57:43;3.90;;;1.40;;
61460;SDS011;47325;50.506;4.472;2022-11-15T10:03:28;4.20;;;1.40;;
61460;SDS011;47325;50.506;4.472;2022-11-15T10:09:15;3.50;;;1.60;;
61460;SDS011;47325;50.506;4.472;2022-11-15T10:15:06;4.50;;;1.40;;
61460;SDS011;47325;50.506;4.472;2022-11-15T10:20:54;4.50;;;1.30;;
61460;SDS011;47325;50.506;4.472;2022-11-15T10:26:43;3.20;;;1.50;;
61460;SDS011;47325;50.506;4.472;2022-11-15T10:32:28;3.20;;;1.20;;
61460;SDS011;47325;50.506;4.472;2022-11-15T10:38:12;3.70;;;1.30;;
61460;SDS011;47325;50.506;4.472;2022-11-15T10:44:07;2.50;;;1.00;;
61460;SDS011;47325;50.506;4.472;2022-11-15T10:50:02;3.80;;;1.30;;
61460;SDS011;47325;50.506;4.472;2022-11-15T10:55:46;2.80;;;1.40;;
61460;SDS011;47325;50.506;4.472;2022-11-15T11:01:31;2.80;;;1.20;;
61460;SDS011;47325;50.506;4.472;2022-11-15T11:07:23;4.00;;;1.30;;
61460;SDS011;47325;50.506;4.472;2022-11-15T11:13:21;3.60;;;1.30;;
61460;SDS011;47325;50.506;4.472;2022-11-15T11:19:08;3.50;;;1.10;;
61460;SDS011;47325;50.506;4.472;2022-11-15T11:24:56;3.50;;;1.00;;
61460;SDS011;47325;50.506;4.472;2022-11-15T11:30:50;1.50;;;0.90;;
61460;SDS011;47325;50.506;4.472;2022-11-15T11:36:32;3.50;;;1.30;;
61460;SDS011;47325;50.506;4.472;2022-11-15T11:42:22;1.60;;;0.90;;
61460;SDS011;47325;50.506;4.472;2022-11-15T11:48:08;3.80;;;1.20;;
61460;SDS011;47325;50.506;4.472;2022-11-15T11:53:54;4.10;;;1.00;;
61460;SDS011;47325;50.506;4.472;2022-11-15T11:59:42;3.60;;;1.20;;
61460;SDS011;47325;50.506;4.472;2022-11-15T12:05:27;3.30;;;1.10;;
61460;SDS011;47325;50.506;4.472;2022-11-15T12:11:13;3.10;;;1.20;;
61460;SDS011;47325;50.506;4.472;2022-11-15T12:16:57;3.70;;;1.10;;
61460;SDS011;47325;50.506;4.472;2022-11-15T12:22:41;2.80;;;1.20;;
61460;SDS011;47325;50.506;4.472;2022-11-15T12:28:27;2.10;;;1.10;;
61460;SDS011;47325;50.506;4.472;2022-11-15T12:40:16;2.60;;;1.00;;
61460;SDS011;47325;50.506;4.472;2022-11-15T12:45:59;2.10;;;1.00;;
61460;SDS011;47325;50.506;4.472;2022-11-15T12:57:47;2.60;;;1.20;;
61460;SDS011;47325;50.506;4.472;2022-11-15T13:03:30;3.30;;;1.10;;
61460;SDS011;47325;50.506;4.472;2022-11-15T13:21:05;2.80;;;1.10;;
61460;SDS011;47325;50.506;4.472;2022-11-15T13:26:48;1.90;;;1.10;;
61460;SDS011;47325;50.506;4.472;2022-11-15T13:32:31;2.60;;;1.10;;
61460;SDS011;47325;50.506;4.472;2022-11-15T13:38:17;1.80;;;0.90;;
61460;SDS011;47325;50.506;4.472;2022-11-15T13:44:01;3.60;;;1.10;;
61460;SDS011;47325;50.506;4.472;2022-11-15T13:49:44;1.80;;;0.90;;
61460;SDS011;47325;50.506;4.472;2022-11-15T13:55:27;1.60;;;1.00;;
61460;SDS011;47325;50.506;4.472;2022-11-15T14:01:13;2.70;;;1.30;;
61460;SDS011;47325;50.506;4.472;2022-11-15T14:06:57;1.90;;;1.10;;
61460;SDS011;47325;50.506;4.472;2022-11-15T14:12:49;2.00;;;1.10;;
61460;SDS011;47325;50.506;4.472;2022-11-15T14:18:46;2.00;;;1.00;;
61460;SDS011;47325;50.506;4.472;2022-11-15T14:24:30;2.90;;;1.30;;
61460;SDS011;47325;50.506;4.472;2022-11-15T14:30:16;2.10;;;1.10;;
61460;SDS011;47325;50.506;4.472;2022-11-15T14:36:02;1.90;;;1.20;;
61460;SDS011;47325;50.506;4.472;2022-11-15T14:41:47;1.60;;;1.00;;
61460;SDS011;47325;50.506;4.472;2022-11-15T14:47:29;2.00;;;1.30;;
61460;SDS011;47325;50.506;4.472;2022-11-15T14:53:15;1.80;;;1.20;;
61460;SDS011;47325;50.506;4.472;2022-11-15T14:58:59;2.30;;;1.10;;
61460;SDS011;47325;50.506;4.472;2022-11-15T15:04:42;2.60;;;1.40;;
61460;SDS011;47325;50.506;4.472;2022-11-15T15:10:25;1.50;;;1.20;;
61460;SDS011;47325;50.506;4.472;2022-11-15T15:16:22;2.90;;;1.30;;
61460;SDS011;47325;50.506;4.472;2022-11-15T15:22:05;2.90;;;1.30;;
61460;SDS011;47325;50.506;4.472;2022-11-15T15:27:48;3.00;;;1.20;;
61460;SDS011;47325;50.506;4.472;2022-11-15T15:33:31;1.90;;;1.30;;
61460;SDS011;47325;50.506;4.472;2022-11-15T15:39:14;2.60;;;1.40;;
61460;SDS011;47325;50.506;4.472;2022-11-15T15:44:58;2.20;;;1.30;;
61460;SDS011;47325;50.506;4.472;2022-11-15T15:50:41;2.40;;;1.30;;
61460;SDS011;47325;50.506;4.472;2022-11-15T15:56:25;2.10;;;1.30;;
61460;SDS011;47325;50.506;4.472;2022-11-15T16:02:09;2.60;;;1.40;;
61460;SDS011;47325;50.506;4.472;2022-11-15T16:07:55;2.60;;;1.50;;
61460;SDS011;47325;50.506;4.472;2022-11-15T16:13:38;2.40;;;1.30;;
61460;SDS011;47325;50.506;4.472;2022-11-15T16:19:22;3.50;;;1.50;;
61460;SDS011;47325;50.506;4.472;2022-11-15T16:25:07;2.50;;;1.30;;
61460;SDS011;47325;50.506;4.472;2022-11-15T16:30:59;2.20;;;1.40;;
61460;SDS011;47325;50.506;4.472;2022-11-15T16:36:40;2.90;;;1.50;;
61460;SDS011;47325;50.506;4.472;2022-11-15T16:42:23;2.70;;;1.70;;
61460;SDS011;47325;50.506;4.472;2022-11-15T16:48:06;2.60;;;1.90;;
61460;SDS011;47325;50.506;4.472;2022-11-15T16:53:50;2.70;;;1.90;;
61460;SDS011;47325;50.506;4.472;2022-11-15T16:59:34;4.00;;;1.80;;
61460;SDS011;47325;50.506;4.472;2022-11-15T17:05:21;2.90;;;1.80;;
61460;SDS011;47325;50.506;4.472;2022-11-15T17:11:07;2.60;;;1.80;;
61460;SDS011;47325;50.506;4.472;2022-11-15T17:16:50;2.60;;;1.90;;
61460;SDS011;47325;50.506;4.472;2022-11-15T17:22:34;3.30;;;2.10;;
61460;SDS011;47325;50.506;4.472;2022-11-15T17:28:19;3.70;;;2.00;;
61460;SDS011;47325;50.506;4.472;2022-11-15T17:34:03;2.80;;;1.90;;
61460;SDS011;47325;50.506;4.472;2022-11-15T17:39:46;4.30;;;2.00;;
61460;SDS011;47325;50.506;4.472;2022-11-15T17:45:30;3.00;;;1.80;;
61460;SDS011;47325;50.506;4.472;2022-11-15T17:51:13;2.70;;;2.00;;
61460;SDS011;47325;50.506;4.472;2022-11-15T17:56:58;2.60;;;2.10;;
61460;SDS011;47325;50.506;4.472;2022-11-15T18:02:42;2.70;;;2.00;;
61460;SDS011;47325;50.506;4.472;2022-11-15T18:08:25;2.80;;;1.90;;
61460;SDS011;47325;50.506;4.472;2022-11-15T18:14:09;3.20;;;2.10;;
61460;SDS011;47325;50.506;4.472;2022-11-15T18:19:54;2.60;;;2.00;;
61460;SDS011;47325;50.506;4.472;2022-11-15T18:25:37;3.30;;;2.20;;
61460;SDS011;47325;50.506;4.472;2022-11-15T18:31:20;3.00;;;1.90;;
61460;SDS011;47325;50.506;4.472;2022-11-15T18:37:03;2.80;;;2.00;;
61460;SDS011;47325;50.506;4.472;2022-11-15T18:42:46;2.90;;;2.00;;
61460;SDS011;47325;50.506;4.472;2022-11-15T18:48:31;2.80;;;2.00;;
61460;SDS011;47325;50.506;4.472;2022-11-15T18:54:15;3.20;;;2.10;;
61460;SDS011;47325;50.506;4.472;2022-11-15T18:59:58;5.30;;;2.30;;
61460;SDS011;47325;50.506;4.472;2022-11-15T19:05:41;3.00;;;2.10;;
61460;SDS011;47325;50.506;4.472;2022-11-15T19:11:25;3.90;;;2.20;;
61460;SDS011;47325;50.506;4.472;2022-11-15T19:17:08;3.00;;;2.00;;
61460;SDS011;47325;50.506;4.472;2022-11-15T19:22:51;3.30;;;2.20;;
61460;SDS011;47325;50.506;4.472;2022-11-15T19:28:34;3.50;;;2.20;;
61460;SDS011;47325;50.506;4.472;2022-11-15T19:34:17;3.60;;;2.30;;
61460;SDS011;47325;50.506;4.472;2022-11-15T19:40:01;3.20;;;2.20;;
61460;SDS011;47325;50.506;4.472;2022-11-15T19:45:50;2.90;;;2.10;;
61460;SDS011;47325;50.506;4.472;2022-11-15T19:51:42;3.10;;;2.50;;
61460;SDS011;47325;50.506;4.472;2022-11-15T19:57:26;4.80;;;2.50;;
61460;SDS011;47325;50.506;4.472;2022-11-15T20:03:11;3.40;;;2.50;;
61460;SDS011;47325;50.506;4.472;2022-11-15T20:08:55;2.80;;;2.10;;
61460;SDS011;47325;50.506;4.472;2022-11-15T20:14:38;2.90;;;2.10;;
61460;SDS011;47325;50.506;4.472;2022-11-15T20:20:22;3.50;;;2.30;;
61460;SDS011;47325;50.506;4.472;2022-11-15T20:26:06;3.00;;;2.10;;
61460;SDS011;47325;50.506;4.472;2022-11-15T20:31:51;3.90;;;2.50;;
61460;SDS011;47325;50.506;4.472;2022-11-15T20:37:36;3.70;;;2.50;;
61460;SDS011;47325;50.506;4.472;2022-11-15T20:43:20;4.40;;;2.20;;
61460;SDS011;47325;50.506;4.472;2022-11-15T20:49:03;3.40;;;2.30;;
61460;SDS011;47325;50.506;4.472;2022-11-15T20:54:46;3.10;;;2.20;;
61460;SDS011;47325;50.506;4.472;2022-11-15T21:00:29;3.00;;;2.30;;
61460;SDS011;47325;50.506;4.472;2022-11-15T21:06:12;3.50;;;2.30;;
61460;SDS011;47325;50.506;4.472;2022-11-15T21:11:56;3.30;;;2.30;;
61460;SDS011;47325;50.506;4.472;2022-11-15T21:17:39;3.90;;;2.40;;
61460;SDS011;47325;50.506;4.472;2022-11-15T21:23:23;3.70;;;2.40;;
61460;SDS011;47325;50.506;4.472;2022-11-15T21:29:06;4.10;;;2.20;;
61460;SDS011;47325;50.506;4.472;2022-11-15T21:34:50;2.90;;;2.30;;
61460;SDS011;47325;50.506;4.472;2022-11-15T21:40:35;4.20;;;2.30;;
61460;SDS011;47325;50.506;4.472;2022-11-15T21:46:18;3.10;;;2.30;;
61460;SDS011;47325;50.506;4.472;2022-11-15T21:52:02;3.00;;;2.30;;
61460;SDS011;47325;50.506;4.472;2022-11-15T21:57:45;2.80;;;2.30;;
61460;SDS011;47325;50.506;4.472;2022-11-15T22:03:28;3.10;;;2.20;;
61460;SDS011;47325;50.506;4.472;2022-11-15T22:09:10;2.60;;;2.10;;
61460;SDS011;47325;50.506;4.472;2022-11-15T22:14:54;2.60;;;2.20;;
61460;SDS011;47325;50.506;4.472;2022-11-15T22:20:37;3.20;;;2.20;;
61460;SDS011;47325;50.506;4.472;2022-11-15T22:26:26;3.40;;;2.10;;
61460;SDS011;47325;50.506;4.472;2022-11-15T22:32:09;3.20;;;2.10;;
61460;SDS011;47325;50.506;4.472;2022-11-15T22:37:52;2.60;;;2.00;;
61460;SDS011;47325;50.506;4.472;2022-11-15T22:43:35;2.90;;;1.90;;
61460;SDS011;47325;50.506;4.472;2022-11-15T22:49:19;3.30;;;2.20;;
61460;SDS011;47325;50.506;4.472;2022-11-15T22:55:11;2.60;;;1.90;;
61460;SDS011;47325;50.506;4.472;2022-11-15T23:00:55;3.00;;;2.00;;
61460;SDS011;47325;50.506;4.472;2022-11-15T23:06:38;3.60;;;2.10;;
61460;SDS011;47325;50.506;4.472;2022-11-15T23:12:23;2.20;;;1.90;;
61460;SDS011;47325;50.506;4.472;2022-11-15T23:18:06;3.40;;;1.90;;
61460;SDS011;47325;50.506;4.472;2022-11-15T23:23:50;2.50;;;1.80;;
61460;SDS011;47325;50.506;4.472;2022-11-15T23:29:33;2.80;;;2.00;;
61460;SDS011;47325;50.506;4.472;2022-11-15T23:35:16;3.60;;;2.10;;
61460;SDS011;47325;50.506;4.472;2022-11-15T23:40:59;4.40;;;2.00;;
61460;SDS011;47325;50.506;4.472;2022-11-15T23:46:42;3.50;;;2.20;;
61460;SDS011;47325;50.506;4.472;2022-11-15T23:52:26;2.90;;;2.10;;
61460;SDS011;47325;50.506;4.472;2022-11-15T23:58:09;3.60;;;2.40;;
